Time;durP1;ratioP1;P1;durP2;ratioP2;P2;SDS_P1;SDS_P2;PMS_P1;PMS_P2;Temp;Humidity;BMP_temperature;BMP_pressure;BME280_temperature;BME280_humidity;BME280_pressure;Samples;Min_cycle;Max_cycle;Signal;HPM_P1;HPM_P2
2022/09/29 00:01:29;;;;;;;11.82;9.73;;;7.10;99.90;;;;;;4389770;27;10000369;-76
2022/09/29 00:03:55;;;;;;;10.60;9.32;;;7.10;99.90;;;;;;5107260;27;20027;-76
2022/09/29 00:06:20;;;;;;;10.43;8.90;;;7.10;99.90;;;;;;5114354;27;20044;-76
2022/09/29 00:08:46;;;;;;;11.18;9.32;;;7.00;99.90;;;;;;5086589;28;20040;-76
2022/09/29 00:11:17;;;;;;;11.52;9.50;;;7.10;99.90;;;;;;5101963;27;20024;-76
2022/09/29 00:13:44;;;;;;;10.73;9.35;;;7.10;99.90;;;;;;5092332;28;20467;-76
2022/09/29 00:16:12;;;;;;;10.77;9.35;;;7.10;99.90;;;;;;5089460;28;20662;-76
2022/09/29 00:18:39;;;;;;;12.32;9.70;;;7.10;99.90;;;;;;5087001;28;20032;-76
2022/09/29 00:21:15;;;;;;;12.07;9.93;;;7.10;99.90;;;;;;5114118;27;20430;-76
2022/09/29 00:23:41;;;;;;;12.48;9.82;;;7.20;99.90;;;;;;5088502;28;20396;-76
2022/09/29 00:26:19;;;;;;;10.73;8.75;;;7.20;99.90;;;;;;5099770;27;20046;-76
2022/09/29 00:28:57;;;;;;;11.50;8.90;;;7.20;99.90;;;;;;5109512;28;20042;-76
2022/09/29 00:31:28;;;;;;;10.65;8.80;;;7.20;99.90;;;;;;5111814;28;20107;-76
2022/09/29 00:33:54;;;;;;;10.50;8.75;;;7.20;99.90;;;;;;5090737;28;20019;-76
2022/09/29 00:36:21;;;;;;;11.13;9.25;;;7.10;99.90;;;;;;5103117;28;20026;-77
2022/09/29 00:38:48;;;;;;;13.20;10.27;;;7.20;99.90;;;;;;5094997;28;20024;-76
2022/09/29 00:41:23;;;;;;;10.73;9.27;;;7.20;99.90;;;;;;5087993;28;20339;-76
2022/09/29 00:44:13;;;;;;;11.15;8.77;;;7.20;99.90;;;;;;5108852;28;20483;-76
2022/09/29 00:46:45;;;;;;;10.27;8.98;;;7.10;99.90;;;;;;5101801;28;20419;-76
2022/09/29 00:49:22;;;;;;;13.13;10.63;;;7.10;99.90;;;;;;5095280;27;20061;-76
2022/09/29 00:51:54;;;;;;;12.32;10.45;;;7.10;99.90;;;;;;5099319;27;20020;-76
2022/09/29 00:54:21;;;;;;;12.75;10.40;;;7.10;99.90;;;;;;5106651;27;20505;-76
2022/09/29 00:56:49;;;;;;;13.10;10.80;;;7.10;99.90;;;;;;5103637;27;20032;-76
2022/09/29 00:59:23;;;;;;;10.40;8.93;;;7.00;99.90;;;;;;5090581;28;20019;-76
2022/09/29 01:01:49;;;;;;;12.43;9.68;;;7.10;99.90;;;;;;5097921;28;20069;-76
2022/09/29 01:04:17;;;;;;;11.77;9.90;;;7.00;99.90;;;;;;5090323;28;20549;-76
2022/09/29 01:06:49;;;;;;;10.88;9.60;;;6.90;99.90;;;;;;5099687;27;20019;-76
2022/09/29 01:09:19;;;;;;;10.93;8.95;;;6.90;99.90;;;;;;5099005;27;20034;-77
2022/09/29 01:11:45;;;;;;;11.20;9.15;;;6.80;99.90;;;;;;5097395;28;20032;-76
2022/09/29 01:14:11;;;;;;;11.32;9.30;;;6.80;99.90;;;;;;5091009;28;20236;-76
2022/09/29 01:16:40;;;;;;;10.02;8.38;;;6.70;99.90;;;;;;5098997;27;20671;-76
2022/09/29 01:19:14;;;;;;;11.43;9.23;;;6.70;99.90;;;;;;5096564;27;20028;-76
2022/09/29 01:22:20;;;;;;;10.98;9.18;;;6.60;99.90;;;;;;5110381;27;20053;-76
2022/09/29 01:24:57;;;;;;;10.65;8.52;;;6.60;99.90;;;;;;5107384;27;20015;-76
2022/09/29 01:27:29;;;;;;;10.63;8.90;;;6.60;99.90;;;;;;5104259;27;20376;-76
2022/09/29 01:30:17;;;;;;;11.27;8.82;;;6.60;99.90;;;;;;5103680;27;20051;-77
2022/09/29 01:33:11;;;;;;;10.88;8.82;;;6.60;99.90;;;;;;5087409;28;20036;-76
2022/09/29 01:35:54;;;;;;;;;;;6.70;99.90;;;;;;5094921;27;20170;-76
2022/09/29 01:38:49;;;;;;;11.35;9.52;;;6.70;99.90;;;;;;5103356;27;19911;-76
2022/09/29 01:41:42;;;;;;;10.68;9.05;;;6.70;99.90;;;;;;5104153;27;20921;-76
2022/09/29 01:44:26;;;;;;;9.68;7.60;;;6.80;99.90;;;;;;5086430;28;20032;-77
2022/09/29 01:46:58;;;;;;;13.20;10.50;;;6.80;99.90;;;;;;5098647;27;20484;-77
2022/09/29 01:49:28;;;;;;;15.80;12.27;;;6.80;99.90;;;;;;5097397;27;20499;-77
2022/09/29 01:52:01;;;;;;;14.20;11.20;;;6.80;99.90;;;;;;5106282;27;20032;-77
2022/09/29 01:54:49;;;;;;;13.60;11.00;;;6.80;99.90;;;;;;5098295;28;20299;-76
2022/09/29 01:57:44;;;;;;;12.55;10.38;;;6.80;99.90;;;;;;5107919;27;20255;-76
2022/09/29 02:00:12;;;;;;;11.68;9.85;;;6.80;99.90;;;;;;5093847;27;20032;-77
2022/09/29 02:02:53;;;;;;;13.15;10.80;;;6.80;99.90;;;;;;5086888;28;20075;-77
2022/09/29 02:05:47;;;;;;;12.20;9.65;;;6.80;99.90;;;;;;5088647;28;20050;-77
2022/09/29 02:08:21;;;;;;;14.43;9.63;;;6.70;99.90;;;;;;5084217;28;20024;-76
2022/09/29 02:11:04;;;;;;;13.50;10.35;;;6.70;99.90;;;;;;5101402;27;20032;-76
2022/09/29 02:14:00;;;;;;;12.48;10.13;;;6.70;99.90;;;;;;5101721;27;20434;-76
2022/09/29 02:16:29;;;;;;;12.57;10.02;;;6.70;99.90;;;;;;5098841;27;20089;-76
2022/09/29 02:19:03;;;;;;;10.73;9.00;;;6.70;99.90;;;;;;5097604;27;20024;-76
2022/09/29 02:21:29;;;;;;;12.25;9.73;;;6.70;99.90;;;;;;5104310;27;20028;-76
2022/09/29 02:23:56;;;;;;;11.93;9.52;;;6.70;99.90;;;;;;5095696;28;20377;-76
2022/09/29 02:26:24;;;;;;;14.32;10.93;;;6.70;99.90;;;;;;5105815;27;20128;-76
2022/09/29 02:28:51;;;;;;;16.42;12.23;;;6.70;99.90;;;;;;5105639;27;20467;-76
2022/09/29 02:31:17;;;;;;;15.40;12.38;;;6.70;99.90;;;;;;5115004;27;20035;-76
2022/09/29 02:33:43;;;;;;;15.45;12.32;;;6.70;99.90;;;;;;5117828;27;20024;-76
2022/09/29 02:36:27;;;;;;;16.48;11.90;;;6.80;99.90;;;;;;5110789;27;20026;-76
2022/09/29 02:39:15;;;;;;;17.48;13.15;;;6.80;99.90;;;;;;5090434;28;20023;-76
2022/09/29 02:42:06;;;;;;;18.25;14.15;;;6.70;99.90;;;;;;5060967;27;20542;-76
2022/09/29 02:44:50;;;;;;;17.42;13.48;;;6.70;99.90;;;;;;5113448;27;20076;-76
2022/09/29 02:47:55;;;;;;;19.08;13.93;;;6.70;99.90;;;;;;5102386;27;20043;-76
2022/09/29 02:50:21;;;;;;;18.83;14.35;;;6.70;99.90;;;;;;5105860;27;20088;-76
2022/09/29 02:53:26;;;;;;;18.88;13.65;;;6.70;99.90;;;;;;5087382;28;20032;-76
2022/09/29 02:55:57;;;;;;;21.20;14.32;;;6.80;99.90;;;;;;5049302;28;20100;-76
2022/09/29 02:58:32;;;;;;;23.42;14.20;;;6.80;99.90;;;;;;5043232;28;20057;-77
2022/09/29 03:00:58;;;;;;;20.60;14.27;;;6.80;99.90;;;;;;5045218;28;20048;-77
2022/09/29 03:03:24;;;;;;;21.40;14.52;;;6.80;99.90;;;;;;5047260;28;20586;-76
2022/09/29 03:05:50;;;;;;;22.35;14.90;;;6.90;99.90;;;;;;5045075;28;20106;-77
2022/09/29 03:08:16;;;;;;;20.30;14.80;;;6.80;99.90;;;;;;5042060;28;20071;-76
2022/09/29 03:10:42;;;;;;;24.10;16.30;;;6.80;99.90;;;;;;5047433;28;20040;-76
2022/09/29 03:13:07;;;;;;;20.88;14.88;;;6.90;99.90;;;;;;5043964;28;20059;-77
2022/09/29 03:15:33;;;;;;;22.58;15.93;;;6.90;99.90;;;;;;5048239;28;20805;-76
2022/09/29 03:17:59;;;;;;;20.40;14.57;;;6.90;99.90;;;;;;5041716;28;20296;-76
2022/09/29 03:20:25;;;;;;;30.80;15.77;;;6.90;99.90;;;;;;5052519;28;20028;-76
2022/09/29 03:22:55;;;;;;;21.10;15.63;;;6.90;99.90;;;;;;5053479;28;20215;-76
2022/09/29 03:25:23;;;;;;;24.27;15.30;;;6.90;99.90;;;;;;5049791;28;20070;-76
2022/09/29 03:27:49;;;;;;;19.15;13.82;;;6.90;99.90;;;;;;5086696;28;20051;-76
2022/09/29 03:30:15;;;;;;;21.35;13.98;;;7.00;99.90;;;;;;5102568;28;20036;-76
2022/09/29 03:32:42;;;;;;;21.58;14.23;;;7.00;99.90;;;;;;5097965;28;20043;-76
2022/09/29 03:35:08;;;;;;;20.27;14.35;;;7.00;99.90;;;;;;5106635;28;20459;-77
2022/09/29 03:37:34;;;;;;;24.38;14.18;;;7.00;99.90;;;;;;5101750;27;20032;-76
2022/09/29 03:40:00;;;;;;;26.33;14.60;;;7.00;99.90;;;;;;5086364;28;20511;-77
2022/09/29 03:42:27;;;;;;;23.02;15.55;;;7.00;99.90;;;;;;5117675;27;20071;-76
2022/09/29 03:44:53;;;;;;;28.27;14.30;;;6.90;99.90;;;;;;5114117;27;20038;-76
2022/09/29 03:47:19;;;;;;;21.00;14.32;;;6.90;99.90;;;;;;5110586;27;20019;-76
2022/09/29 03:49:45;;;;;;;23.45;13.07;;;6.90;99.90;;;;;;5118692;27;20360;-76
2022/09/29 03:52:10;;;;;;;21.00;13.27;;;6.90;99.90;;;;;;5129306;27;20030;-76
2022/09/29 03:54:36;;;;;;;19.98;14.75;;;6.80;99.90;;;;;;5141374;27;20046;-76
2022/09/29 03:57:02;;;;;;;18.80;14.02;;;6.80;99.90;;;;;;5128522;27;20027;-76
2022/09/29 03:59:27;;;;;;;19.85;15.15;;;6.90;99.90;;;;;;5104970;27;20542;-76
2022/09/29 04:01:53;;;;;;;20.63;15.35;;;6.90;99.90;;;;;;5112675;27;20299;-76
2022/09/29 04:04:19;;;;;;;30.20;20.80;;;6.90;99.90;;;;;;5108241;27;20080;-76
2022/09/29 04:06:44;;;;;;;23.90;18.42;;;6.90;99.90;;;;;;5119974;27;20386;-76
2022/09/29 04:09:10;;;;;;;20.98;16.13;;;6.90;99.90;;;;;;5120972;27;20062;-76
2022/09/29 04:11:36;;;;;;;17.92;14.48;;;6.90;99.90;;;;;;5115189;27;20035;-76
2022/09/29 04:14:02;;;;;;;18.17;15.13;;;6.90;99.90;;;;;;5119272;27;20579;-77
2022/09/29 04:16:28;;;;;;;16.25;13.65;;;6.90;99.90;;;;;;5116797;27;20594;-77
2022/09/29 04:18:53;;;;;;;15.15;12.70;;;6.90;99.90;;;;;;5108568;27;20531;-76
2022/09/29 04:21:19;;;;;;;17.55;14.93;;;6.90;99.90;;;;;;5116286;27;20019;-77
2022/09/29 04:23:45;;;;;;;16.73;14.20;;;6.90;99.90;;;;;;5121310;27;20031;-76
2022/09/29 04:26:11;;;;;;;14.50;12.07;;;6.90;99.90;;;;;;5119667;27;20106;-77
2022/09/29 04:28:37;;;;;;;16.05;12.52;;;6.90;99.90;;;;;;5111326;27;20122;-77
2022/09/29 04:31:04;;;;;;;14.27;11.50;;;6.90;99.90;;;;;;5098922;28;20479;-77
2022/09/29 04:33:30;;;;;;;16.75;12.70;;;6.90;99.90;;;;;;5127888;28;20102;-76
2022/09/29 04:35:57;;;;;;;15.75;12.75;;;6.90;99.90;;;;;;5119263;27;20102;-76
2022/09/29 04:38:23;;;;;;;15.05;12.20;;;6.90;99.90;;;;;;5120840;27;20599;-77
2022/09/29 04:40:48;;;;;;;15.65;12.43;;;6.90;99.90;;;;;;5108200;28;20189;-76
2022/09/29 04:43:14;;;;;;;18.40;12.93;;;6.90;99.90;;;;;;5118615;27;20429;-77
2022/09/29 04:45:40;;;;;;;15.10;12.38;;;6.90;99.90;;;;;;5117907;27;20472;-76
2022/09/29 04:48:06;;;;;;;15.18;12.00;;;7.00;99.90;;;;;;5114147;28;20096;-76
2022/09/29 04:50:32;;;;;;;13.18;11.43;;;7.00;99.90;;;;;;5111603;28;20505;-76
2022/09/29 04:52:58;;;;;;;13.65;11.02;;;7.10;99.90;;;;;;5104582;28;20096;-76
2022/09/29 04:55:24;;;;;;;14.98;11.32;;;7.00;99.90;;;;;;5094067;28;20504;-76
2022/09/29 04:57:50;;;;;;;13.18;10.93;;;7.00;99.90;;;;;;5125150;27;20027;-76
2022/09/29 05:00:16;;;;;;;12.27;10.50;;;7.10;99.90;;;;;;5114672;27;20031;-76
2022/09/29 05:02:42;;;;;;;11.82;10.27;;;7.10;99.90;;;;;;5111199;27;20049;-76
2022/09/29 05:05:09;;;;;;;11.90;10.52;;;7.10;99.90;;;;;;5125383;27;20034;-76
2022/09/29 05:07:36;;;;;;;12.73;10.90;;;7.10;99.90;;;;;;5118693;27;20110;-76
2022/09/29 05:10:03;;;;;;;12.68;10.77;;;7.10;99.90;;;;;;5114612;27;20499;-76
2022/09/29 05:12:28;;;;;;;13.85;11.02;;;7.10;99.90;;;;;;5120613;27;20042;-76
2022/09/29 05:14:54;;;;;;;14.35;11.38;;;7.10;99.90;;;;;;5120019;27;20027;-76
2022/09/29 05:17:20;;;;;;;13.65;11.38;;;7.10;99.90;;;;;;5106816;27;20011;-76
2022/09/29 05:19:45;;;;;;;15.07;11.40;;;7.10;99.90;;;;;;5118555;27;20092;-76
2022/09/29 05:22:11;;;;;;;13.45;10.60;;;7.10;99.90;;;;;;5125564;28;20075;-76
2022/09/29 05:24:37;;;;;;;18.33;13.15;;;7.10;99.90;;;;;;5084947;28;20095;-76
2022/09/29 05:27:02;;;;;;;12.13;10.55;;;7.10;99.90;;;;;;5124529;27;20023;-76
2022/09/29 05:29:28;;;;;;;12.10;10.43;;;7.10;99.90;;;;;;5106966;27;20569;-76
2022/09/29 05:31:54;;;;;;;15.38;10.32;;;7.10;99.90;;;;;;5113049;28;20027;-77
2022/09/29 05:34:19;;;;;;;11.35;10.02;;;7.10;99.90;;;;;;5107914;28;20023;-76
2022/09/29 05:36:45;;;;;;;17.17;10.70;;;7.10;99.90;;;;;;5122540;27;20039;-76
2022/09/29 05:39:11;;;;;;;13.40;12.00;;;7.10;99.90;;;;;;5107101;27;20479;-76
2022/09/29 05:41:37;;;;;;;12.93;10.57;;;7.10;99.90;;;;;;5118858;27;20047;-76
2022/09/29 05:44:03;;;;;;;13.52;10.73;;;7.10;99.90;;;;;;5129113;27;20030;-76
2022/09/29 05:46:29;;;;;;;14.18;11.23;;;7.10;99.90;;;;;;5111498;27;20029;-76
2022/09/29 05:48:56;;;;;;;13.40;11.30;;;7.10;99.90;;;;;;5116439;27;20031;-76
2022/09/29 05:51:23;;;;;;;49.50;12.65;;;7.10;99.90;;;;;;5119361;27;20023;-76
2022/09/29 05:53:50;;;;;;;16.08;11.45;;;7.10;99.90;;;;;;5108674;27;20034;-76
2022/09/29 05:56:25;;;;;;;14.68;11.43;;;7.10;99.90;;;;;;5108642;27;20486;-76
2022/09/29 05:58:52;;;;;;;13.27;11.07;;;7.10;99.90;;;;;;5122418;27;20073;-76
2022/09/29 06:01:20;;;;;;;19.60;12.05;;;7.20;99.90;;;;;;5122615;27;20021;-76
2022/09/29 06:03:46;;;;;;;13.90;11.15;;;7.20;99.90;;;;;;5118588;27;20081;-76
2022/09/29 06:06:17;;;;;;;20.30;10.57;;;7.20;99.90;;;;;;5118949;27;20493;-76
2022/09/29 06:08:44;;;;;;;15.07;11.15;;;7.20;99.90;;;;;;5117344;27;20024;-76
2022/09/29 06:11:12;;;;;;;15.55;10.80;;;7.10;99.90;;;;;;5119234;27;20030;-76
2022/09/29 06:13:39;;;;;;;20.40;13.85;;;7.10;99.90;;;;;;5117520;27;20113;-76
2022/09/29 06:16:06;;;;;;;29.23;14.95;;;7.20;99.90;;;;;;4767323;27;10000335;-76
2022/09/29 06:18:32;;;;;;;47.92;12.45;;;7.20;99.90;;;;;;5118347;27;20034;-76
2022/09/29 06:21:05;;;;;;;27.48;11.10;;;7.20;99.90;;;;;;5126877;27;20031;-77
2022/09/29 06:23:31;;;;;;;14.27;11.57;;;7.20;99.90;;;;;;5126093;27;20499;-76
2022/09/29 06:25:58;;;;;;;12.48;10.60;;;7.20;99.90;;;;;;5125565;27;20023;-77
2022/09/29 06:28:24;;;;;;;29.75;11.35;;;7.20;99.90;;;;;;5127906;27;20087;-78
2022/09/29 06:30:50;;;;;;;17.83;10.20;;;7.20;99.90;;;;;;5121199;27;20039;-77
2022/09/29 06:33:16;;;;;;;11.40;9.50;;;7.20;99.90;;;;;;5114212;27;20035;-78
2022/09/29 06:38:33;;;;;;;21.63;12.30;;;7.10;99.90;;;;;;5106109;27;20034;-78
2022/09/29 06:40:59;;;;;;;17.10;12.48;;;7.20;99.90;;;;;;5116494;27;20034;-77
2022/09/29 06:43:25;;;;;;;18.88;14.15;;;7.20;99.90;;;;;;5121561;27;20043;-77
2022/09/29 06:45:50;;;;;;;18.45;12.18;;;7.20;99.90;;;;;;5138297;27;20027;-82
2022/09/29 06:48:16;;;;;;;17.75;11.90;;;7.20;99.90;;;;;;5144710;27;20031;-82
2022/09/29 06:50:41;;;;;;;16.77;12.13;;;7.20;99.90;;;;;;5112960;27;20028;-81
2022/09/29 06:53:07;;;;;;;17.50;12.70;;;7.20;99.90;;;;;;5120591;27;20376;-82
2022/09/29 06:55:32;;;;;;;16.70;12.02;;;7.20;99.90;;;;;;5109647;27;20063;-82
2022/09/29 06:57:58;;;;;;;37.00;11.77;;;7.30;99.90;;;;;;5106748;28;20028;-82
2022/09/29 07:00:24;;;;;;;13.10;10.98;;;7.30;99.90;;;;;;5110949;27;20019;-82
2022/09/29 07:02:50;;;;;;;18.13;12.07;;;7.30;99.90;;;;;;5115427;27;20038;-82
2022/09/29 07:05:16;;;;;;;15.57;11.77;;;7.40;99.90;;;;;;5137841;27;20030;-82
2022/09/29 07:07:41;;;;;;;16.85;11.55;;;7.40;99.90;;;;;;5117029;27;20027;-82
2022/09/29 07:10:08;;;;;;;23.23;11.88;;;7.40;99.90;;;;;;5109228;27;20107;-82
2022/09/29 07:12:33;;;;;;;13.32;10.70;;;7.40;99.90;;;;;;5114169;27;20027;-82
2022/09/29 07:14:59;;;;;;;25.48;10.85;;;7.40;99.90;;;;;;5138760;27;20030;-82
2022/09/29 07:17:25;;;;;;;79.40;12.15;;;7.40;99.90;;;;;;5107558;27;20156;-82
2022/09/29 07:19:55;;;;;;;26.92;10.98;;;7.40;99.90;;;;;;5108581;28;20372;-82
2022/09/29 07:22:21;;;;;;;31.20;11.45;;;7.30;99.90;;;;;;5117772;27;20024;-82
2022/09/29 07:24:47;;;;;;;22.83;11.02;;;7.30;99.90;;;;;;5118874;27;20030;-82
2022/09/29 07:27:13;;;;;;;27.10;11.05;;;7.30;99.90;;;;;;5125482;27;20031;-82
2022/09/29 07:29:39;;;;;;;15.70;11.13;;;7.30;99.90;;;;;;5114156;27;20039;-83
2022/09/29 07:32:04;;;;;;;14.82;10.88;;;7.30;99.90;;;;;;5099838;27;20423;-78
2022/09/29 07:34:30;;;;;;;13.80;11.35;;;7.30;99.90;;;;;;5113524;27;20080;-78
2022/09/29 07:36:56;;;;;;;21.73;11.77;;;7.30;99.90;;;;;;5118699;27;20019;-78
2022/09/29 07:39:21;;;;;;;19.80;11.45;;;7.30;99.90;;;;;;5106513;27;20019;-78
2022/09/29 07:41:47;;;;;;;40.47;13.15;;;7.40;99.90;;;;;;5124208;27;20473;-78
2022/09/29 07:44:13;;;;;;;13.38;11.52;;;7.40;99.90;;;;;;5126325;27;20023;-78
2022/09/29 07:46:38;;;;;;;14.60;11.75;;;7.50;99.90;;;;;;5123637;27;20053;-78
2022/09/29 07:49:04;;;;;;;51.13;11.77;;;7.50;99.90;;;;;;5128885;27;20119;-78
2022/09/29 07:51:31;;;;;;;13.32;11.07;;;7.50;99.90;;;;;;5124435;27;20027;-78
2022/09/29 07:54:01;;;;;;;13.93;10.60;;;7.50;99.90;;;;;;5135377;27;20413;-78
2022/09/29 07:56:27;;;;;;;13.32;11.00;;;7.70;99.90;;;;;;5105859;27;20019;-78
2022/09/29 07:58:52;;;;;;;14.52;10.60;;;7.80;99.90;;;;;;5101779;27;20024;-78
2022/09/29 08:01:19;;;;;;;17.08;12.23;;;7.90;99.90;;;;;;5114559;27;20494;-78
2022/09/29 08:03:53;;;;;;;21.35;11.25;;;8.00;99.90;;;;;;5111316;27;20550;-78
2022/09/29 08:06:20;;;;;;;17.73;11.07;;;8.10;99.90;;;;;;5102629;27;20892;-78
2022/09/29 08:08:46;;;;;;;20.35;11.00;;;8.10;99.90;;;;;;5113342;27;20537;-78
2022/09/29 08:11:15;;;;;;;16.77;10.35;;;8.20;99.90;;;;;;5111733;27;20027;-78
2022/09/29 08:13:41;;;;;;;12.00;9.90;;;8.30;99.90;;;;;;5100340;27;20023;-78
2022/09/29 08:16:10;;;;;;;57.92;11.55;;;8.30;99.90;;;;;;5110092;27;20043;-78
2022/09/29 08:18:36;;;;;;;13.98;10.43;;;8.30;99.90;;;;;;5095271;27;20061;-77
2022/09/29 08:21:03;;;;;;;21.50;9.98;;;8.40;99.90;;;;;;5116242;27;20022;-77
2022/09/29 08:23:30;;;;;;;16.25;10.02;;;8.40;99.90;;;;;;5123374;27;20026;-78
2022/09/29 08:26:07;;;;;;;16.40;10.50;;;8.40;99.90;;;;;;5109459;27;20019;-77
2022/09/29 08:28:35;;;;;;;13.55;10.13;;;8.40;99.90;;;;;;5127990;27;20083;-77
2022/09/29 08:31:20;;;;;;;11.70;10.43;;;8.50;99.90;;;;;;5125978;27;20023;-78
2022/09/29 08:33:50;;;;;;;11.77;10.43;;;8.50;99.90;;;;;;5110724;27;20495;-78
2022/09/29 08:36:17;;;;;;;11.68;10.25;;;8.60;99.90;;;;;;5097419;27;20028;-77
2022/09/29 08:38:44;;;;;;;20.75;11.43;;;8.60;99.90;;;;;;5114533;27;20072;-77
2022/09/29 08:41:25;;;;;;;15.90;10.30;;;8.70;99.90;;;;;;5112465;27;20035;-77
2022/09/29 08:43:56;;;;;;;25.35;10.15;;;8.80;99.90;;;;;;5134237;27;20508;-78
2022/09/29 08:46:48;;;;;;;33.90;11.45;;;8.80;99.90;;;;;;5115709;27;20504;-78
2022/09/29 08:49:26;;;;;;;12.13;10.48;;;8.80;99.90;;;;;;5119714;27;20027;-78
2022/09/29 08:51:56;;;;;;;15.02;11.27;;;8.90;99.90;;;;;;5114905;27;20146;-78
2022/09/29 08:54:30;;;;;;;12.40;10.95;;;9.00;99.90;;;;;;5104677;28;20016;-77
2022/09/29 08:56:58;;;;;;;14.55;11.30;;;9.00;99.90;;;;;;5120007;27;20027;-77
2022/09/29 08:59:26;;;;;;;32.17;11.90;;;9.10;99.90;;;;;;5105004;27;20023;-77
2022/09/29 09:02:29;;;;;;;14.68;11.68;;;9.20;99.90;;;;;;5123353;27;20478;-77
2022/09/29 09:05:32;;;;;;;21.33;12.55;;;9.20;99.90;;;;;;5121017;27;20734;-77
2022/09/29 09:08:06;;;;;;;14.90;12.23;;;9.20;99.90;;;;;;5114407;27;20027;-77
2022/09/29 09:10:47;;;;;;;15.70;12.43;;;9.20;99.90;;;;;;5134355;27;20059;-77
2022/09/29 09:13:44;;;;;;;14.35;11.57;;;9.40;99.90;;;;;;5126330;27;20083;-77
2022/09/29 09:16:29;;;;;;;17.23;11.68;;;9.40;99.90;;;;;;5131325;27;20042;-77
2022/09/29 09:19:19;;;;;;;23.73;12.07;;;9.50;99.90;;;;;;5123163;27;20041;-77
2022/09/29 09:22:10;;;;;;;13.90;11.60;;;9.50;99.90;;;;;;5130497;27;20327;-77
2022/09/29 09:24:47;;;;;;;16.17;13.23;;;9.60;99.90;;;;;;5122932;27;20368;-77
2022/09/29 09:27:21;;;;;;;16.40;13.73;;;9.70;99.90;;;;;;5130202;27;20183;-78
2022/09/29 09:29:49;;;;;;;16.27;13.52;;;9.80;99.90;;;;;;5128508;27;20023;-77
2022/09/29 09:32:20;;;;;;;16.50;13.32;;;9.70;99.90;;;;;;5126665;27;20167;-78
2022/09/29 09:35:01;;;;;;;15.98;13.23;;;9.70;99.90;;;;;;5101889;27;20038;-78
2022/09/29 09:37:39;;;;;;;23.85;17.85;;;9.80;99.90;;;;;;5133313;27;20015;-78
2022/09/29 09:40:20;;;;;;;18.50;15.57;;;9.90;99.90;;;;;;5131568;27;20079;-78
2022/09/29 09:43:09;;;;;;;19.40;14.20;;;10.00;99.90;;;;;;5128246;27;20473;-77
2022/09/29 09:45:47;;;;;;;17.92;14.52;;;10.00;99.90;;;;;;5106849;27;20389;-78
2022/09/29 09:48:19;;;;;;;17.90;14.35;;;10.10;99.90;;;;;;5118960;27;20032;-78
2022/09/29 09:50:49;;;;;;;17.20;14.27;;;10.20;99.90;;;;;;5124122;27;20129;-77
2022/09/29 09:53:27;;;;;;;17.55;14.20;;;10.30;99.90;;;;;;5126357;27;20022;-77
2022/09/29 09:56:15;;;;;;;21.30;14.05;;;10.40;99.90;;;;;;5129938;27;20689;-78
2022/09/29 09:58:59;;;;;;;16.17;14.27;;;10.50;99.90;;;;;;5126379;27;20474;-77
2022/09/29 10:01:26;;;;;;;17.00;14.32;;;10.60;99.90;;;;;;5125141;27;20300;-77
2022/09/29 10:03:52;;;;;;;17.58;14.65;;;10.60;99.90;;;;;;5122393;27;20031;-77
2022/09/29 10:06:18;;;;;;;19.00;14.98;;;10.80;99.90;;;;;;5130166;27;21272;-77
2022/09/29 10:08:44;;;;;;;16.88;15.07;;;10.90;99.90;;;;;;5137058;27;20088;-77
2022/09/29 10:11:24;;;;;;;18.98;15.07;;;10.90;99.90;;;;;;5134090;27;20027;-77
2022/09/29 10:14:16;;;;;;;17.70;15.30;;;10.90;99.90;;;;;;5122730;27;20146;-78
2022/09/29 10:16:54;;;;;;;17.92;15.57;;;11.10;99.90;;;;;;5092881;27;20032;-76
2022/09/29 10:19:43;;;;;;;19.73;15.80;;;11.30;99.90;;;;;;5112803;27;20558;-77
2022/09/29 10:22:13;;;;;;;18.13;16.10;;;;;;;;;;5124454;27;20037;-77
2022/09/29 10:24:39;;;;;;;18.08;15.32;;;11.60;99.90;;;;;;5124120;27;20046;-77
2022/09/29 10:27:06;;;;;;;17.60;15.20;;;11.70;99.90;;;;;;5115019;27;20023;-78
2022/09/29 10:29:43;;;;;;;17.75;15.60;;;11.80;99.90;;;;;;5114522;27;20588;-77
2022/09/29 10:32:12;;;;;;;18.05;15.43;;;12.00;99.90;;;;;;5117388;27;20019;-78
2022/09/29 10:34:46;;;;;;;18.40;14.93;;;12.10;99.90;;;;;;5120883;27;20054;-77
2022/09/29 10:37:34;;;;;;;23.75;17.42;;;12.30;99.90;;;;;;5112817;27;20019;-77
2022/09/29 10:40:22;;;;;;;19.35;16.02;;;12.30;99.90;;;;;;5117831;27;20043;-77
2022/09/29 10:42:50;;;;;;;17.38;14.85;;;12.40;99.90;;;;;;5127523;27;20150;-78
2022/09/29 10:45:24;;;;;;;17.73;15.30;;;12.40;99.90;;;;;;5125044;27;20043;-78
2022/09/29 10:47:56;;;;;;;19.88;15.75;;;12.50;99.90;;;;;;5112607;27;20023;-77
2022/09/29 10:50:25;;;;;;;17.13;14.63;;;12.60;99.90;;;;;;5118233;27;20600;-77
2022/09/29 10:53:03;;;;;;;18.33;15.25;;;12.80;99.90;;;;;;5114174;27;20031;-77
2022/09/29 10:55:32;;;;;;;17.67;14.65;;;12.90;99.90;;;;;;5135965;27;20046;-77
2022/09/29 10:58:18;;;;;;;20.73;15.15;;;13.00;99.90;;;;;;5124587;27;20497;-78
2022/09/29 11:00:46;;;;;;;17.98;15.43;;;13.00;99.90;;;;;;5124923;27;20035;-77
2022/09/29 11:03:25;;;;;;;16.42;14.00;;;13.10;99.90;;;;;;5126265;27;20153;-77
2022/09/29 11:06:00;;;;;;;16.80;12.38;;;13.20;99.90;;;;;;5134559;27;20035;-77
2022/09/29 11:08:26;;;;;;;10.65;9.55;;;13.30;99.90;;;;;;5127613;27;20045;-77
2022/09/29 11:11:21;;;;;;;12.57;11.02;;;13.40;99.90;;;;;;5120526;27;20023;-77
2022/09/29 11:13:48;;;;;;;12.40;10.82;;;13.50;99.90;;;;;;5118843;27;20028;-77
2022/09/29 11:16:25;;;;;;;10.05;8.85;;;13.50;99.90;;;;;;5116851;27;20400;-77
2022/09/29 11:18:54;;;;;;;10.55;6.68;;;13.50;99.90;;;;;;5128409;27;20027;-81
2022/09/29 11:21:20;;;;;;;7.72;6.93;;;13.50;99.90;;;;;;5110790;27;20034;-81
2022/09/29 11:24:10;;;;;;;10.18;7.25;;;13.50;99.90;;;;;;5137511;27;20072;-81
2022/09/29 11:26:48;;;;;;;10.32;7.07;;;13.50;99.90;;;;;;5121643;27;20027;-80
2022/09/29 11:29:25;;;;;;;8.20;7.35;;;13.50;99.90;;;;;;5104599;27;20032;-81
2022/09/29 11:32:20;;;;;;;9.02;6.90;;;13.60;99.90;;;;;;5118626;27;20707;-81
2022/09/29 11:34:46;;;;;;;11.30;7.57;;;13.60;99.90;;;;;;5148331;27;20045;-80
2022/09/29 11:37:38;;;;;;;8.60;6.97;;;13.70;99.90;;;;;;5131663;27;20628;-81
2022/09/29 11:40:24;;;;;;;7.85;6.10;;;13.90;99.90;;;;;;5128511;27;20027;-81
2022/09/29 11:43:05;;;;;;;7.22;5.93;;;14.10;99.90;;;;;;5121966;27;20066;-81
2022/09/29 11:46:09;;;;;;;6.03;5.43;;;14.20;99.90;;;;;;5119213;27;20023;-80
2022/09/29 11:49:07;;;;;;;8.73;7.50;;;14.40;99.90;;;;;;5135997;27;20022;-79
2022/09/29 11:51:55;;;;;;;7.47;6.53;;;14.40;99.90;;;;;;5122962;27;20027;-81
2022/09/29 11:54:57;;;;;;;8.32;7.10;;;14.40;99.90;;;;;;5125089;27;20054;-77
2022/09/29 11:57:44;;;;;;;9.18;7.80;;;14.50;99.90;;;;;;5124273;27;20027;-76
2022/09/29 12:00:10;;;;;;;9.45;6.97;;;14.60;99.90;;;;;;5114745;27;20035;-77
2022/09/29 12:02:45;;;;;;;8.27;6.47;;;14.80;99.90;;;;;;5118760;27;20031;-76
2022/09/29 12:05:20;;;;;;;9.05;7.65;;;14.80;99.90;;;;;;5112436;27;20035;-77
2022/09/29 12:08:00;;;;;;;6.63;5.22;;;14.90;99.90;;;;;;5118729;27;20019;-78
2022/09/29 12:10:55;;;;;;;7.00;5.32;;;14.90;99.90;;;;;;5129944;27;20034;-76
2022/09/29 12:13:45;;;;;;;9.13;6.22;;;14.90;99.90;;;;;;5132979;27;20031;-76
2022/09/29 12:16:15;;;;;;;6.57;5.80;;;15.00;99.90;;;;;;5122706;27;20030;-76
2022/09/29 12:18:47;;;;;;;9.93;5.75;;;15.10;99.90;;;;;;5117813;27;20175;-76
2022/09/29 12:21:16;;;;;;;5.82;5.22;;;15.10;99.90;;;;;;5132852;27;20050;-77
2022/09/29 12:23:44;;;;;;;6.45;5.20;;;15.20;99.90;;;;;;5135582;27;20030;-76
2022/09/29 12:26:22;;;;;;;6.18;5.13;;;15.20;99.90;;;;;;5110977;27;20446;-76
2022/09/29 12:29:29;;;;;;;6.20;3.97;;;15.10;99.90;;;;;;5124320;27;20475;-77
2022/09/29 12:31:59;;;;;;;7.75;4.50;;;15.10;99.90;;;;;;5115720;27;20434;-77
2022/09/29 12:34:43;;;;;;;6.03;4.03;;;15.20;99.90;;;;;;5122721;27;20015;-76
2022/09/29 12:37:16;;;;;;;;;;;15.30;99.90;;;;;;5124274;27;20114;-76
2022/09/29 12:39:45;;;;;;;5.05;4.50;;;15.40;99.90;;;;;;5123887;28;19899;-77
2022/09/29 12:42:34;;;;;;;6.53;4.25;;;15.50;99.90;;;;;;5126803;27;20066;-77
2022/09/29 12:45:22;;;;;;;5.15;4.53;;;15.40;99.90;;;;;;5128343;27;20114;-76
2022/09/29 12:48:05;;;;;;;5.65;4.30;;;15.50;99.90;;;;;;5117273;27;20015;-76
2022/09/29 12:50:47;;;;;;;8.95;4.07;;;15.60;99.90;;;;;;5116151;27;20081;-76
2022/09/29 12:53:38;;;;;;;6.18;3.30;;;15.60;99.90;;;;;;5127174;27;20473;-76
2022/09/29 12:56:10;;;;;;;5.80;3.35;;;15.70;99.90;;;;;;5121548;27;20023;-77
2022/09/29 12:59:05;;;;;;;4.70;3.10;;;15.70;99.90;;;;;;5124889;27;20023;-77
2022/09/29 13:01:36;;;;;;;3.55;2.28;;;15.90;99.90;;;;;;5119560;27;20035;-77
2022/09/29 13:04:11;;;;;;;6.53;3.38;;;16.00;99.90;;;;;;5128173;27;20035;-77
2022/09/29 13:06:48;;;;;;;4.53;3.30;;;16.00;99.90;;;;;;5127896;27;20024;-77
2022/09/29 13:09:45;;;;;;;3.67;3.00;;;15.90;99.90;;;;;;5134402;27;20092;-77